sensor_id;sensor_type;location;lat;lon;timestamp;temperature;humidity
15426;DHT22;7812;50.072;7.036;2022-08-19T00:00:08;18.00;99.90
15426;DHT22;7812;50.072;7.036;2022-08-19T00:02:35;18.00;99.90
15426;DHT22;7812;50.072;7.036;2022-08-19T00:05:02;18.00;99.90
15426;DHT22;7812;50.072;7.036;2022-08-19T00:07:28;17.90;99.90
15426;DHT22;7812;50.072;7.036;2022-08-19T00:09:54;17.90;99.90
15426;DHT22;7812;50.072;7.036;2022-08-19T00:12:20;17.90;99.90
15426;DHT22;7812;50.072;7.036;2022-08-19T00:14:45;17.90;99.90
15426;DHT22;7812;50.072;7.036;2022-08-19T00:17:11;17.80;99.90
15426;DHT22;7812;50.072;7.036;2022-08-19T00:19:38;17.80;99.90
15426;DHT22;7812;50.072;7.036;2022-08-19T00:22:04;17.80;99.90
15426;DHT22;7812;50.072;7.036;2022-08-19T00:24:31;17.80;99.90
15426;DHT22;7812;50.072;7.036;2022-08-19T00:26:57;17.80;99.90
15426;DHT22;7812;50.072;7.036;2022-08-19T00:29:24;17.90;99.90
15426;DHT22;7812;50.072;7.036;2022-08-19T00:31:51;17.80;99.90
15426;DHT22;7812;50.072;7.036;2022-08-19T00:34:21;17.90;99.90
15426;DHT22;7812;50.072;7.036;2022-08-19T00:36:47;17.80;99.90
15426;DHT22;7812;50.072;7.036;2022-08-19T00:39:15;17.80;99.90
15426;DHT22;7812;50.072;7.036;2022-08-19T00:41:43;17.70;99.90
15426;DHT22;7812;50.072;7.036;2022-08-19T00:44:26;17.70;99.90
15426;DHT22;7812;50.072;7.036;2022-08-19T00:46:53;17.70;99.90
15426;DHT22;7812;50.072;7.036;2022-08-19T00:49:24;17.70;99.90
15426;DHT22;7812;50.072;7.036;2022-08-19T00:54:57;17.60;99.90
15426;DHT22;7812;50.072;7.036;2022-08-19T00:57:28;17.60;99.90
15426;DHT22;7812;50.072;7.036;2022-08-19T00:59:56;17.60;99.90
15426;DHT22;7812;50.072;7.036;2022-08-19T01:02:24;17.60;99.90
15426;DHT22;7812;50.072;7.036;2022-08-19T01:04:50;17.60;99.90
15426;DHT22;7812;50.072;7.036;2022-08-19T01:07:15;17.60;99.90
15426;DHT22;7812;50.072;7.036;2022-08-19T01:09:42;17.50;99.90
15426;DHT22;7812;50.072;7.036;2022-08-19T01:12:08;17.50;99.90
15426;DHT22;7812;50.072;7.036;2022-08-19T01:14:35;17.50;99.90
15426;DHT22;7812;50.072;7.036;2022-08-19T01:17:02;17.40;99.90
15426;DHT22;7812;50.072;7.036;2022-08-19T01:19:31;17.30;99.90
15426;DHT22;7812;50.072;7.036;2022-08-19T01:22:17;17.20;99.90
15426;DHT22;7812;50.072;7.036;2022-08-19T01:24:45;17.30;99.90
15426;DHT22;7812;50.072;7.036;2022-08-19T01:27:11;17.30;99.90
15426;DHT22;7812;50.072;7.036;2022-08-19T01:29:39;17.40;99.90
15426;DHT22;7812;50.072;7.036;2022-08-19T01:32:06;17.40;99.90
15426;DHT22;7812;50.072;7.036;2022-08-19T01:34:32;17.40;99.90
15426;DHT22;7812;50.072;7.036;2022-08-19T01:37:00;17.30;99.90
15426;DHT22;7812;50.072;7.036;2022-08-19T01:39:30;17.30;99.90
15426;DHT22;7812;50.072;7.036;2022-08-19T01:41:56;17.30;99.90
15426;DHT22;7812;50.072;7.036;2022-08-19T01:44:22;17.30;99.90
15426;DHT22;7812;50.072;7.036;2022-08-19T01:46:50;17.30;99.90
15426;DHT22;7812;50.072;7.036;2022-08-19T01:49:18;17.30;99.90
15426;DHT22;7812;50.072;7.036;2022-08-19T01:51:44;17.30;99.90
15426;DHT22;7812;50.072;7.036;2022-08-19T01:54:12;17.30;99.90
15426;DHT22;7812;50.072;7.036;2022-08-19T01:56:38;17.30;99.90
15426;DHT22;7812;50.072;7.036;2022-08-19T01:59:11;17.20;99.90
15426;DHT22;7812;50.072;7.036;2022-08-19T02:01:37;17.30;99.90
15426;DHT22;7812;50.072;7.036;2022-08-19T02:04:03;17.30;99.90
15426;DHT22;7812;50.072;7.036;2022-08-19T02:06:30;17.20;99.90
15426;DHT22;7812;50.072;7.036;2022-08-19T02:08:56;17.10;99.90
15426;DHT22;7812;50.072;7.036;2022-08-19T02:11:25;17.10;99.90
15426;DHT22;7812;50.072;7.036;2022-08-19T02:13:52;17.10;99.90
15426;DHT22;7812;50.072;7.036;2022-08-19T02:16:18;17.00;99.90
15426;DHT22;7812;50.072;7.036;2022-08-19T02:18:46;17.00;99.90
15426;DHT22;7812;50.072;7.036;2022-08-19T02:21:14;17.00;99.90
15426;DHT22;7812;50.072;7.036;2022-08-19T02:23:41;16.90;99.90
15426;DHT22;7812;50.072;7.036;2022-08-19T02:26:07;16.90;99.90
15426;DHT22;7812;50.072;7.036;2022-08-19T02:28:33;16.90;99.90
15426;DHT22;7812;50.072;7.036;2022-08-19T02:30:59;16.80;99.90
15426;DHT22;7812;50.072;7.036;2022-08-19T02:33:26;16.80;99.90
15426;DHT22;7812;50.072;7.036;2022-08-19T02:35:52;16.70;99.90
15426;DHT22;7812;50.072;7.036;2022-08-19T02:38:17;16.70;99.90
15426;DHT22;7812;50.072;7.036;2022-08-19T02:40:56;16.60;99.90
15426;DHT22;7812;50.072;7.036;2022-08-19T02:43:23;16.70;99.90
15426;DHT22;7812;50.072;7.036;2022-08-19T02:45:49;16.60;99.90
15426;DHT22;7812;50.072;7.036;2022-08-19T02:48:17;16.60;99.90
15426;DHT22;7812;50.072;7.036;2022-08-19T02:50:44;16.70;99.90
15426;DHT22;7812;50.072;7.036;2022-08-19T02:53:10;16.60;99.90
15426;DHT22;7812;50.072;7.036;2022-08-19T02:55:41;16.70;99.90
15426;DHT22;7812;50.072;7.036;2022-08-19T02:58:08;16.70;99.90
15426;DHT22;7812;50.072;7.036;2022-08-19T03:00:34;16.70;99.90
15426;DHT22;7812;50.072;7.036;2022-08-19T03:03:02;16.70;99.90
15426;DHT22;7812;50.072;7.036;2022-08-19T03:05:28;16.70;99.90
15426;DHT22;7812;50.072;7.036;2022-08-19T03:07:54;16.70;99.90
15426;DHT22;7812;50.072;7.036;2022-08-19T03:10:20;16.70;99.90
15426;DHT22;7812;50.072;7.036;2022-08-19T03:12:46;16.70;99.90
15426;DHT22;7812;50.072;7.036;2022-08-19T03:15:12;16.60;99.90
15426;DHT22;7812;50.072;7.036;2022-08-19T03:17:38;16.60;99.90
15426;DHT22;7812;50.072;7.036;2022-08-19T03:20:04;16.40;99.90
15426;DHT22;7812;50.072;7.036;2022-08-19T03:22:30;16.40;99.90
15426;DHT22;7812;50.072;7.036;2022-08-19T03:24:56;16.50;99.90
15426;DHT22;7812;50.072;7.036;2022-08-19T03:27:22;16.50;99.90
15426;DHT22;7812;50.072;7.036;2022-08-19T03:29:47;16.60;99.90
15426;DHT22;7812;50.072;7.036;2022-08-19T03:32:13;16.60;99.90
15426;DHT22;7812;50.072;7.036;2022-08-19T03:34:39;16.50;99.90
15426;DHT22;7812;50.072;7.036;2022-08-19T03:37:09;16.50;99.90
15426;DHT22;7812;50.072;7.036;2022-08-19T03:39:37;16.50;99.90
15426;DHT22;7812;50.072;7.036;2022-08-19T03:42:03;16.50;99.90
15426;DHT22;7812;50.072;7.036;2022-08-19T03:44:30;16.40;99.90
15426;DHT22;7812;50.072;7.036;2022-08-19T03:46:58;16.20;99.90
15426;DHT22;7812;50.072;7.036;2022-08-19T03:49:29;16.20;99.90
15426;DHT22;7812;50.072;7.036;2022-08-19T03:51:56;16.10;99.90
15426;DHT22;7812;50.072;7.036;2022-08-19T03:54:24;16.10;99.90
15426;DHT22;7812;50.072;7.036;2022-08-19T03:56:52;16.20;99.90
15426;DHT22;7812;50.072;7.036;2022-08-19T03:59:26;16.20;99.90
15426;DHT22;7812;50.072;7.036;2022-08-19T04:01:57;16.20;99.90
15426;DHT22;7812;50.072;7.036;2022-08-19T04:04:23;16.20;99.90
15426;DHT22;7812;50.072;7.036;2022-08-19T04:06:49;16.10;99.90
15426;DHT22;7812;50.072;7.036;2022-08-19T04:09:17;16.10;99.90
15426;DHT22;7812;50.072;7.036;2022-08-19T04:11:47;16.00;99.90
15426;DHT22;7812;50.072;7.036;2022-08-19T04:14:16;16.00;99.90
15426;DHT22;7812;50.072;7.036;2022-08-19T04:16:42;16.00;99.90
15426;DHT22;7812;50.072;7.036;2022-08-19T04:19:10;16.00;99.90
15426;DHT22;7812;50.072;7.036;2022-08-19T04:21:36;16.00;99.90
15426;DHT22;7812;50.072;7.036;2022-08-19T04:24:02;16.00;99.90
15426;DHT22;7812;50.072;7.036;2022-08-19T04:26:32;16.00;99.90
15426;DHT22;7812;50.072;7.036;2022-08-19T04:28:59;16.00;99.90
15426;DHT22;7812;50.072;7.036;2022-08-19T04:31:27;16.10;99.90
15426;DHT22;7812;50.072;7.036;2022-08-19T04:33:58;16.10;99.90
15426;DHT22;7812;50.072;7.036;2022-08-19T04:36:28;16.00;99.90
15426;DHT22;7812;50.072;7.036;2022-08-19T04:38:56;16.00;99.90
15426;DHT22;7812;50.072;7.036;2022-08-19T04:41:22;15.90;99.90
15426;DHT22;7812;50.072;7.036;2022-08-19T04:44:07;16.00;99.90
15426;DHT22;7812;50.072;7.036;2022-08-19T04:46:33;15.90;99.90
15426;DHT22;7812;50.072;7.036;2022-08-19T04:49:01;16.00;99.90
15426;DHT22;7812;50.072;7.036;2022-08-19T04:51:27;16.10;99.90
15426;DHT22;7812;50.072;7.036;2022-08-19T04:53:53;16.10;99.90
15426;DHT22;7812;50.072;7.036;2022-08-19T04:56:20;16.20;99.90
15426;DHT22;7812;50.072;7.036;2022-08-19T04:58:48;16.10;99.90
15426;DHT22;7812;50.072;7.036;2022-08-19T05:01:19;16.10;99.90
15426;DHT22;7812;50.072;7.036;2022-08-19T05:03:45;16.10;99.90
15426;DHT22;7812;50.072;7.036;2022-08-19T05:06:13;16.20;99.90
15426;DHT22;7812;50.072;7.036;2022-08-19T05:08:40;16.30;99.90
15426;DHT22;7812;50.072;7.036;2022-08-19T05:11:30;16.20;99.90
15426;DHT22;7812;50.072;7.036;2022-08-19T05:13:57;16.30;99.90
15426;DHT22;7812;50.072;7.036;2022-08-19T05:16:24;16.40;99.90
15426;DHT22;7812;50.072;7.036;2022-08-19T05:18:50;16.50;99.90
15426;DHT22;7812;50.072;7.036;2022-08-19T05:21:35;16.50;99.90
15426;DHT22;7812;50.072;7.036;2022-08-19T05:24:21;16.60;99.90
15426;DHT22;7812;50.072;7.036;2022-08-19T05:26:49;16.70;99.90
15426;DHT22;7812;50.072;7.036;2022-08-19T05:29:17;16.70;99.90
15426;DHT22;7812;50.072;7.036;2022-08-19T05:31:43;16.70;99.90
15426;DHT22;7812;50.072;7.036;2022-08-19T05:34:10;16.80;99.90
15426;DHT22;7812;50.072;7.036;2022-08-19T05:36:39;17.00;99.90
15426;DHT22;7812;50.072;7.036;2022-08-19T05:39:06;17.30;99.90
15426;DHT22;7812;50.072;7.036;2022-08-19T05:41:32;17.50;99.90
15426;DHT22;7812;50.072;7.036;2022-08-19T05:44:01;17.60;99.90
15426;DHT22;7812;50.072;7.036;2022-08-19T05:46:28;17.80;99.90
15426;DHT22;7812;50.072;7.036;2022-08-19T05:48:54;18.30;99.90
15426;DHT22;7812;50.072;7.036;2022-08-19T05:51:22;18.90;99.90
15426;DHT22;7812;50.072;7.036;2022-08-19T05:53:49;19.50;99.90
15426;DHT22;7812;50.072;7.036;2022-08-19T05:56:16;20.00;99.90
15426;DHT22;7812;50.072;7.036;2022-08-19T05:58:44;20.30;99.90
15426;DHT22;7812;50.072;7.036;2022-08-19T06:01:15;20.40;99.90
15426;DHT22;7812;50.072;7.036;2022-08-19T06:03:43;20.70;99.90
15426;DHT22;7812;50.072;7.036;2022-08-19T06:06:10;21.30;99.90
15426;DHT22;7812;50.072;7.036;2022-08-19T06:08:37;21.60;99.90
15426;DHT22;7812;50.072;7.036;2022-08-19T06:13:46;22.50;99.90
15426;DHT22;7812;50.072;7.036;2022-08-19T06:16:16;21.60;99.90
15426;DHT22;7812;50.072;7.036;2022-08-19T06:18:50;21.30;99.90
15426;DHT22;7812;50.072;7.036;2022-08-19T06:21:24;21.40;99.90
15426;DHT22;7812;50.072;7.036;2022-08-19T06:23:51;21.80;99.90
15426;DHT22;7812;50.072;7.036;2022-08-19T06:26:19;22.40;99.90
15426;DHT22;7812;50.072;7.036;2022-08-19T06:28:46;22.60;99.90
15426;DHT22;7812;50.072;7.036;2022-08-19T06:31:26;22.40;99.90
15426;DHT22;7812;50.072;7.036;2022-08-19T06:33:52;22.40;99.90
15426;DHT22;7812;50.072;7.036;2022-08-19T06:36:30;22.90;99.90
15426;DHT22;7812;50.072;7.036;2022-08-19T06:39:10;23.10;99.90
15426;DHT22;7812;50.072;7.036;2022-08-19T06:41:38;23.60;99.90
15426;DHT22;7812;50.072;7.036;2022-08-19T06:44:05;24.20;99.90
15426;DHT22;7812;50.072;7.036;2022-08-19T06:46:31;25.00;99.90
15426;DHT22;7812;50.072;7.036;2022-08-19T06:48:57;25.40;99.90
15426;DHT22;7812;50.072;7.036;2022-08-19T06:51:24;25.40;99.90
15426;DHT22;7812;50.072;7.036;2022-08-19T06:53:51;25.60;99.90
15426;DHT22;7812;50.072;7.036;2022-08-19T06:56:21;25.90;99.90
15426;DHT22;7812;50.072;7.036;2022-08-19T06:58:48;26.30;99.90
15426;DHT22;7812;50.072;7.036;2022-08-19T07:01:18;26.80;99.90
15426;DHT22;7812;50.072;7.036;2022-08-19T07:03:44;26.80;99.90
15426;DHT22;7812;50.072;7.036;2022-08-19T07:06:14;27.50;99.90
15426;DHT22;7812;50.072;7.036;2022-08-19T07:08:46;28.00;99.90
15426;DHT22;7812;50.072;7.036;2022-08-19T07:11:15;27.40;99.90
15426;DHT22;7812;50.072;7.036;2022-08-19T07:13:42;26.40;99.90
15426;DHT22;7812;50.072;7.036;2022-08-19T07:16:12;26.00;99.90
15426;DHT22;7812;50.072;7.036;2022-08-19T07:18:38;25.80;99.90
15426;DHT22;7812;50.072;7.036;2022-08-19T07:21:10;25.80;99.90
15426;DHT22;7812;50.072;7.036;2022-08-19T07:23:36;26.40;99.90
15426;DHT22;7812;50.072;7.036;2022-08-19T07:26:11;26.40;99.90
15426;DHT22;7812;50.072;7.036;2022-08-19T07:28:37;26.40;99.90
15426;DHT22;7812;50.072;7.036;2022-08-19T07:31:07;26.30;99.90
15426;DHT22;7812;50.072;7.036;2022-08-19T07:33:35;26.30;99.90
15426;DHT22;7812;50.072;7.036;2022-08-19T07:36:04;26.90;99.90
15426;DHT22;7812;50.072;7.036;2022-08-19T07:38:32;26.80;99.90
15426;DHT22;7812;50.072;7.036;2022-08-19T07:40:58;26.00;99.90
15426;DHT22;7812;50.072;7.036;2022-08-19T07:43:24;26.20;99.90
15426;DHT22;7812;50.072;7.036;2022-08-19T07:45:52;26.40;99.90
15426;DHT22;7812;50.072;7.036;2022-08-19T07:48:26;26.30;99.90
15426;DHT22;7812;50.072;7.036;2022-08-19T07:50:54;26.30;99.90
15426;DHT22;7812;50.072;7.036;2022-08-19T07:53:31;26.70;99.90
15426;DHT22;7812;50.072;7.036;2022-08-19T07:55:58;27.30;99.90
15426;DHT22;7812;50.072;7.036;2022-08-19T07:58:27;28.00;99.90
15426;DHT22;7812;50.072;7.036;2022-08-19T08:00:53;27.90;99.90
15426;DHT22;7812;50.072;7.036;2022-08-19T08:03:21;27.70;99.90
15426;DHT22;7812;50.072;7.036;2022-08-19T08:06:07;28.10;99.90
15426;DHT22;7812;50.072;7.036;2022-08-19T08:08:51;28.90;99.90
15426;DHT22;7812;50.072;7.036;2022-08-19T08:11:37;29.60;99.90
15426;DHT22;7812;50.072;7.036;2022-08-19T08:14:02;28.60;99.90
15426;DHT22;7812;50.072;7.036;2022-08-19T08:16:33;28.70;99.90
15426;DHT22;7812;50.072;7.036;2022-08-19T08:18:59;29.00;99.90
15426;DHT22;7812;50.072;7.036;2022-08-19T08:21:25;28.70;99.90
15426;DHT22;7812;50.072;7.036;2022-08-19T08:23:51;28.80;99.90
15426;DHT22;7812;50.072;7.036;2022-08-19T08:26:18;27.90;99.90
15426;DHT22;7812;50.072;7.036;2022-08-19T08:28:44;27.40;99.90
15426;DHT22;7812;50.072;7.036;2022-08-19T08:31:12;27.80;99.90
15426;DHT22;7812;50.072;7.036;2022-08-19T08:33:38;28.40;99.90
15426;DHT22;7812;50.072;7.036;2022-08-19T08:36:08;29.60;99.90
15426;DHT22;7812;50.072;7.036;2022-08-19T08:38:35;29.60;99.90
15426;DHT22;7812;50.072;7.036;2022-08-19T08:43:40;30.50;99.90
15426;DHT22;7812;50.072;7.036;2022-08-19T08:46:55;31.40;99.90
15426;DHT22;7812;50.072;7.036;2022-08-19T08:52:15;31.60;99.90
15426;DHT22;7812;50.072;7.036;2022-08-19T08:54:45;30.80;99.90
15426;DHT22;7812;50.072;7.036;2022-08-19T08:57:26;29.70;99.90
15426;DHT22;7812;50.072;7.036;2022-08-19T08:59:54;27.90;99.90
15426;DHT22;7812;50.072;7.036;2022-08-19T09:02:22;27.30;99.90
15426;DHT22;7812;50.072;7.036;2022-08-19T09:04:48;26.40;99.90
15426;DHT22;7812;50.072;7.036;2022-08-19T09:10:14;25.60;99.90
15426;DHT22;7812;50.072;7.036;2022-08-19T09:12:56;25.70;99.90
15426;DHT22;7812;50.072;7.036;2022-08-19T09:15:34;26.70;99.90
15426;DHT22;7812;50.072;7.036;2022-08-19T09:18:02;26.90;99.90
15426;DHT22;7812;50.072;7.036;2022-08-19T09:20:29;26.50;99.90
15426;DHT22;7812;50.072;7.036;2022-08-19T09:22:56;26.40;99.90
15426;DHT22;7812;50.072;7.036;2022-08-19T09:25:24;26.90;99.90
15426;DHT22;7812;50.072;7.036;2022-08-19T09:27:51;27.90;99.90
15426;DHT22;7812;50.072;7.036;2022-08-19T09:30:24;29.00;99.90
15426;DHT22;7812;50.072;7.036;2022-08-19T09:32:50;29.40;99.90
15426;DHT22;7812;50.072;7.036;2022-08-19T09:35:20;30.40;99.90
15426;DHT22;7812;50.072;7.036;2022-08-19T09:37:48;30.50;99.90
15426;DHT22;7812;50.072;7.036;2022-08-19T09:40:15;30.20;99.90
15426;DHT22;7812;50.072;7.036;2022-08-19T09:42:41;30.00;99.90
15426;DHT22;7812;50.072;7.036;2022-08-19T09:45:09;31.10;99.90
15426;DHT22;7812;50.072;7.036;2022-08-19T09:47:35;32.50;99.90
15426;DHT22;7812;50.072;7.036;2022-08-19T09:50:08;31.90;99.90
15426;DHT22;7812;50.072;7.036;2022-08-19T09:52:35;29.30;99.90
15426;DHT22;7812;50.072;7.036;2022-08-19T09:55:07;29.10;99.90
15426;DHT22;7812;50.072;7.036;2022-08-19T09:58:01;29.20;99.90
15426;DHT22;7812;50.072;7.036;2022-08-19T10:00:27;29.20;99.90
15426;DHT22;7812;50.072;7.036;2022-08-19T10:02:53;29.20;99.90
15426;DHT22;7812;50.072;7.036;2022-08-19T10:05:19;29.70;99.90
15426;DHT22;7812;50.072;7.036;2022-08-19T10:08:03;29.70;99.90
15426;DHT22;7812;50.072;7.036;2022-08-19T10:10:29;29.40;99.90
15426;DHT22;7812;50.072;7.036;2022-08-19T10:12:54;29.90;99.90
15426;DHT22;7812;50.072;7.036;2022-08-19T10:15:21;30.60;99.90
15426;DHT22;7812;50.072;7.036;2022-08-19T10:17:47;30.10;99.90
15426;DHT22;7812;50.072;7.036;2022-08-19T10:20:12;29.10;99.90
15426;DHT22;7812;50.072;7.036;2022-08-19T10:22:38;28.80;99.90
15426;DHT22;7812;50.072;7.036;2022-08-19T10:25:05;29.00;99.90
15426;DHT22;7812;50.072;7.036;2022-08-19T10:27:31;29.50;99.90
15426;DHT22;7812;50.072;7.036;2022-08-19T10:29:57;30.20;99.90
15426;DHT22;7812;50.072;7.036;2022-08-19T10:32:23;31.30;99.90
15426;DHT22;7812;50.072;7.036;2022-08-19T10:34:50;31.40;99.90
15426;DHT22;7812;50.072;7.036;2022-08-19T10:37:17;30.70;99.90
15426;DHT22;7812;50.072;7.036;2022-08-19T10:39:45;29.20;99.90
15426;DHT22;7812;50.072;7.036;2022-08-19T10:42:13;27.90;99.90
15426;DHT22;7812;50.072;7.036;2022-08-19T10:44:40;27.40;99.90
15426;DHT22;7812;50.072;7.036;2022-08-19T10:47:06;27.00;99.90
15426;DHT22;7812;50.072;7.036;2022-08-19T10:49:31;26.90;99.90
15426;DHT22;7812;50.072;7.036;2022-08-19T10:51:57;26.90;99.90
15426;DHT22;7812;50.072;7.036;2022-08-19T10:54:41;26.80;99.90
15426;DHT22;7812;50.072;7.036;2022-08-19T10:57:29;26.70;99.90
15426;DHT22;7812;50.072;7.036;2022-08-19T10:59:56;26.60;99.90
15426;DHT22;7812;50.072;7.036;2022-08-19T11:02:21;26.50;99.90
15426;DHT22;7812;50.072;7.036;2022-08-19T11:04:48;27.10;99.90
15426;DHT22;7812;50.072;7.036;2022-08-19T11:07:16;29.20;99.90
15426;DHT22;7812;50.072;7.036;2022-08-19T11:09:42;32.10;99.90
15426;DHT22;7812;50.072;7.036;2022-08-19T11:12:09;33.20;99.90
15426;DHT22;7812;50.072;7.036;2022-08-19T11:14:35;32.60;99.90
15426;DHT22;7812;50.072;7.036;2022-08-19T11:17:03;32.00;99.90
15426;DHT22;7812;50.072;7.036;2022-08-19T11:19:29;32.30;99.90
15426;DHT22;7812;50.072;7.036;2022-08-19T11:21:55;31.30;99.90
15426;DHT22;7812;50.072;7.036;2022-08-19T11:24:23;29.80;99.90
15426;DHT22;7812;50.072;7.036;2022-08-19T11:26:53;28.50;99.90
15426;DHT22;7812;50.072;7.036;2022-08-19T11:29:22;27.80;99.90
15426;DHT22;7812;50.072;7.036;2022-08-19T11:31:51;27.70;99.90
15426;DHT22;7812;50.072;7.036;2022-08-19T11:34:21;28.80;99.90
15426;DHT22;7812;50.072;7.036;2022-08-19T11:36:49;30.50;99.90
15426;DHT22;7812;50.072;7.036;2022-08-19T11:39:17;31.20;99.90
15426;DHT22;7812;50.072;7.036;2022-08-19T11:41:44;32.80;99.90
15426;DHT22;7812;50.072;7.036;2022-08-19T11:44:10;33.40;99.90
15426;DHT22;7812;50.072;7.036;2022-08-19T11:46:37;33.10;99.90
15426;DHT22;7812;50.072;7.036;2022-08-19T11:49:04;32.50;99.90
15426;DHT22;7812;50.072;7.036;2022-08-19T11:51:31;31.30;99.90
15426;DHT22;7812;50.072;7.036;2022-08-19T11:53:58;30.70;99.90
15426;DHT22;7812;50.072;7.036;2022-08-19T11:56:24;31.20;99.90
15426;DHT22;7812;50.072;7.036;2022-08-19T11:58:51;31.00;99.90
15426;DHT22;7812;50.072;7.036;2022-08-19T12:01:19;32.00;99.90
15426;DHT22;7812;50.072;7.036;2022-08-19T12:03:48;33.10;98.80
15426;DHT22;7812;50.072;7.036;2022-08-19T12:06:20;33.20;97.90
15426;DHT22;7812;50.072;7.036;2022-08-19T12:08:48;33.20;97.70
15426;DHT22;7812;50.072;7.036;2022-08-19T12:11:14;30.80;99.30
15426;DHT22;7812;50.072;7.036;2022-08-19T12:13:40;30.00;99.90
15426;DHT22;7812;50.072;7.036;2022-08-19T12:16:11;30.00;99.90
15426;DHT22;7812;50.072;7.036;2022-08-19T12:18:39;29.30;99.90
15426;DHT22;7812;50.072;7.036;2022-08-19T12:21:07;29.60;99.90
15426;DHT22;7812;50.072;7.036;2022-08-19T12:23:35;30.20;99.90
15426;DHT22;7812;50.072;7.036;2022-08-19T12:26:03;30.50;99.90
15426;DHT22;7812;50.072;7.036;2022-08-19T12:28:28;30.40;99.90
15426;DHT22;7812;50.072;7.036;2022-08-19T12:30:56;30.40;99.90
15426;DHT22;7812;50.072;7.036;2022-08-19T12:33:22;30.40;99.90
15426;DHT22;7812;50.072;7.036;2022-08-19T12:35:51;30.20;99.90
15426;DHT22;7812;50.072;7.036;2022-08-19T12:38:17;30.40;99.90
15426;DHT22;7812;50.072;7.036;2022-08-19T12:40:47;30.00;99.90
15426;DHT22;7812;50.072;7.036;2022-08-19T12:43:13;30.50;99.90
15426;DHT22;7812;50.072;7.036;2022-08-19T12:45:41;30.50;99.90
15426;DHT22;7812;50.072;7.036;2022-08-19T12:48:08;30.00;99.90
15426;DHT22;7812;50.072;7.036;2022-08-19T12:50:33;29.90;99.90
15426;DHT22;7812;50.072;7.036;2022-08-19T12:52:59;29.70;99.90
15426;DHT22;7812;50.072;7.036;2022-08-19T12:55:25;29.50;99.90
15426;DHT22;7812;50.072;7.036;2022-08-19T12:57:53;30.30;99.90
15426;DHT22;7812;50.072;7.036;2022-08-19T13:00:21;30.40;99.70
15426;DHT22;7812;50.072;7.036;2022-08-19T13:02:50;29.90;99.40
15426;DHT22;7812;50.072;7.036;2022-08-19T13:05:19;29.80;98.60
15426;DHT22;7812;50.072;7.036;2022-08-19T13:07:48;29.80;98.60
15426;DHT22;7812;50.072;7.036;2022-08-19T13:10:19;30.20;98.40
15426;DHT22;7812;50.072;7.036;2022-08-19T13:12:47;30.50;98.10
15426;DHT22;7812;50.072;7.036;2022-08-19T13:15:15;30.80;97.60
15426;DHT22;7812;50.072;7.036;2022-08-19T13:17:43;30.60;97.30
15426;DHT22;7812;50.072;7.036;2022-08-19T13:20:10;30.80;96.80
15426;DHT22;7812;50.072;7.036;2022-08-19T13:22:37;30.50;96.20
15426;DHT22;7812;50.072;7.036;2022-08-19T13:25:03;30.10;96.30
15426;DHT22;7812;50.072;7.036;2022-08-19T13:27:30;30.30;96.00
15426;DHT22;7812;50.072;7.036;2022-08-19T13:29:56;29.70;95.70
15426;DHT22;7812;50.072;7.036;2022-08-19T13:32:40;29.50;95.80
15426;DHT22;7812;50.072;7.036;2022-08-19T13:35:24;29.70;95.50
15426;DHT22;7812;50.072;7.036;2022-08-19T13:37:50;30.20;95.00
15426;DHT22;7812;50.072;7.036;2022-08-19T13:40:18;29.80;95.10
15426;DHT22;7812;50.072;7.036;2022-08-19T13:42:47;29.80;94.70
15426;DHT22;7812;50.072;7.036;2022-08-19T13:45:15;29.60;95.00
15426;DHT22;7812;50.072;7.036;2022-08-19T13:47:41;29.80;94.30
15426;DHT22;7812;50.072;7.036;2022-08-19T13:50:14;29.70;94.10
15426;DHT22;7812;50.072;7.036;2022-08-19T13:52:41;29.40;94.30
15426;DHT22;7812;50.072;7.036;2022-08-19T13:55:08;29.70;93.70
15426;DHT22;7812;50.072;7.036;2022-08-19T13:57:35;29.70;93.50
15426;DHT22;7812;50.072;7.036;2022-08-19T14:00:03;29.30;92.90
15426;DHT22;7812;50.072;7.036;2022-08-19T14:02:29;28.80;92.80
15426;DHT22;7812;50.072;7.036;2022-08-19T14:04:55;28.60;93.50
15426;DHT22;7812;50.072;7.036;2022-08-19T14:07:21;28.60;93.90
15426;DHT22;7812;50.072;7.036;2022-08-19T14:09:49;28.90;93.40
15426;DHT22;7812;50.072;7.036;2022-08-19T14:12:19;29.00;92.90
15426;DHT22;7812;50.072;7.036;2022-08-19T14:14:45;29.20;93.00
15426;DHT22;7812;50.072;7.036;2022-08-19T14:17:11;29.50;93.00
15426;DHT22;7812;50.072;7.036;2022-08-19T14:19:37;29.40;92.80
15426;DHT22;7812;50.072;7.036;2022-08-19T14:22:03;29.30;92.90
15426;DHT22;7812;50.072;7.036;2022-08-19T14:24:30;29.00;93.10
15426;DHT22;7812;50.072;7.036;2022-08-19T14:26:57;28.70;93.40
15426;DHT22;7812;50.072;7.036;2022-08-19T14:29:23;28.90;94.10
15426;DHT22;7812;50.072;7.036;2022-08-19T14:31:49;29.20;94.10
15426;DHT22;7812;50.072;7.036;2022-08-19T14:34:14;29.40;93.80
15426;DHT22;7812;50.072;7.036;2022-08-19T14:36:40;29.40;93.80
15426;DHT22;7812;50.072;7.036;2022-08-19T14:39:08;29.50;94.00
15426;DHT22;7812;50.072;7.036;2022-08-19T14:41:35;29.50;93.20
15426;DHT22;7812;50.072;7.036;2022-08-19T14:44:01;29.00;93.60
15426;DHT22;7812;50.072;7.036;2022-08-19T14:46:27;29.20;93.20
15426;DHT22;7812;50.072;7.036;2022-08-19T14:48:54;29.00;93.30
15426;DHT22;7812;50.072;7.036;2022-08-19T14:51:21;29.10;93.30
15426;DHT22;7812;50.072;7.036;2022-08-19T14:53:47;29.10;93.40
15426;DHT22;7812;50.072;7.036;2022-08-19T14:56:16;28.80;93.40
15426;DHT22;7812;50.072;7.036;2022-08-19T14:58:43;29.10;93.20
15426;DHT22;7812;50.072;7.036;2022-08-19T15:01:11;29.20;92.80
15426;DHT22;7812;50.072;7.036;2022-08-19T15:03:37;29.10;93.00
15426;DHT22;7812;50.072;7.036;2022-08-19T15:06:04;28.80;93.20
15426;DHT22;7812;50.072;7.036;2022-08-19T15:08:32;28.70;93.30
15426;DHT22;7812;50.072;7.036;2022-08-19T15:10:58;28.60;93.40
15426;DHT22;7812;50.072;7.036;2022-08-19T15:13:26;28.70;93.60
15426;DHT22;7812;50.072;7.036;2022-08-19T15:15:53;28.60;93.70
15426;DHT22;7812;50.072;7.036;2022-08-19T15:18:19;28.70;93.70
15426;DHT22;7812;50.072;7.036;2022-08-19T15:20:46;28.60;93.60
15426;DHT22;7812;50.072;7.036;2022-08-19T15:23:14;28.70;93.50
15426;DHT22;7812;50.072;7.036;2022-08-19T15:25:40;28.60;93.90
15426;DHT22;7812;50.072;7.036;2022-08-19T15:28:08;28.50;94.00
15426;DHT22;7812;50.072;7.036;2022-08-19T15:30:37;28.40;94.70
15426;DHT22;7812;50.072;7.036;2022-08-19T15:33:03;28.20;95.60
15426;DHT22;7812;50.072;7.036;2022-08-19T15:35:48;28.20;95.60
15426;DHT22;7812;50.072;7.036;2022-08-19T15:38:16;28.40;95.70
15426;DHT22;7812;50.072;7.036;2022-08-19T15:40:44;28.30;96.00
15426;DHT22;7812;50.072;7.036;2022-08-19T15:43:10;28.20;96.50
15426;DHT22;7812;50.072;7.036;2022-08-19T15:45:36;28.10;96.60
15426;DHT22;7812;50.072;7.036;2022-08-19T15:48:03;27.90;96.90
15426;DHT22;7812;50.072;7.036;2022-08-19T15:50:30;27.70;97.10
15426;DHT22;7812;50.072;7.036;2022-08-19T15:53:05;27.80;97.20
15426;DHT22;7812;50.072;7.036;2022-08-19T15:55:33;27.90;97.10
15426;DHT22;7812;50.072;7.036;2022-08-19T15:58:04;27.70;97.90
15426;DHT22;7812;50.072;7.036;2022-08-19T16:00:49;27.40;98.40
15426;DHT22;7812;50.072;7.036;2022-08-19T16:03:33;27.10;98.90
15426;DHT22;7812;50.072;7.036;2022-08-19T16:06:17;26.90;99.30